Time;durP1;ratioP1;P1;durP2;ratioP2;P2;SDS_P1;SDS_P2;PMS_P1;PMS_P2;Temp;Humidity;BMP_temperature;BMP_pressure;BME280_temperature;BME280_humidity;BME280_pressure;Samples;Min_cycle;Max_cycle;Signal;HPM_P1;HPM_P2
2021/04/25 00:01:49;;;;;;;4.80;2.35;;;;;;;8.99;54.74;101128.34;5045129;28;20036;-84
2021/04/25 00:04:15;;;;;;;3.92;2.38;;;;;;;8.91;55.00;101125.50;5065463;28;20473;-84
2021/04/25 00:06:42;;;;;;;5.13;2.67;;;;;;;8.90;54.83;101129.09;5069250;28;20033;-85
2021/04/25 00:09:07;;;;;;;5.25;3.70;;;;;;;8.88;54.11;101123.94;5059915;28;20021;-84
2021/04/25 00:11:34;;;;;;;4.53;2.90;;;;;;;8.86;54.58;101128.50;5051591;28;20040;-85
2021/04/25 00:13:59;;;;;;;4.55;3.10;;;;;;;8.86;53.88;101120.59;5042578;28;20025;-85
2021/04/25 00:16:28;;;;;;;6.53;3.40;;;;;;;8.78;55.04;101123.03;5042851;28;20480;-84
2021/04/25 00:18:57;;;;;;;5.32;3.08;;;;;;;8.78;54.58;101115.13;5043953;28;20037;-85
2021/04/25 00:21:23;;;;;;;8.40;3.58;;;;;;;8.75;54.96;101120.66;5049998;28;20083;-85
2021/04/25 00:23:50;;;;;;;5.30;3.22;;;;;;;8.70;55.52;101125.47;5043421;28;20029;-84
2021/04/25 00:26:18;;;;;;;6.50;3.47;;;;;;;8.67;55.08;101125.69;5053880;28;20071;-84
2021/04/25 00:28:45;;;;;;;5.18;3.17;;;;;;;8.68;54.94;101128.22;5048466;28;20025;-84
2021/04/25 00:31:11;;;;;;;7.85;3.83;;;;;;;8.68;55.48;101119.47;5048512;28;20036;-84
2021/04/25 00:33:37;;;;;;;8.20;3.95;;;;;;;8.48;56.12;101124.53;5047549;28;20089;-86
2021/04/25 00:36:07;;;;;;;7.43;3.72;;;;;;;8.45;56.19;101126.59;5049135;28;20048;-84
2021/04/25 00:38:34;;;;;;;8.20;4.20;;;;;;;8.40;56.13;101119.06;5045825;28;20041;-84
2021/04/25 00:41:00;;;;;;;6.30;3.38;;;;;;;8.40;56.58;101123.50;5070178;28;20275;-84
2021/04/25 00:43:26;;;;;;;7.75;3.50;;;;;;;8.34;56.40;101121.31;5043190;28;20029;-84
2021/04/25 00:45:52;;;;;;;6.03;3.60;;;;;;;8.39;55.57;101119.16;5053658;28;20060;-84
2021/04/25 00:48:18;;;;;;;6.95;3.58;;;;;;;8.25;57.59;101115.84;5044560;28;20040;-85
2021/04/25 00:50:45;;;;;;;5.65;3.42;;;;;;;8.18;56.85;101108.53;5040440;28;20496;-84
2021/04/25 00:53:15;;;;;;;6.72;3.60;;;;;;;8.22;56.37;101109.94;5042544;28;20033;-83
2021/04/25 00:55:40;;;;;;;9.70;4.72;;;;;;;8.00;59.58;101108.19;5053522;28;20037;-84
2021/04/25 00:58:07;;;;;;;8.82;4.35;;;;;;;8.15;57.10;101103.50;5062383;28;20092;-85
2021/04/25 01:00:33;;;;;;;7.40;3.78;;;;;;;8.20;56.79;101111.88;5037002;28;20459;-85
2021/04/25 01:03:00;;;;;;;6.18;3.70;;;;;;;8.18;56.71;101113.81;5045045;28;20097;-85
2021/04/25 01:05:27;;;;;;;5.30;3.75;;;;;;;8.18;56.39;101109.38;5043803;28;20037;-84
2021/04/25 01:07:54;;;;;;;7.43;3.92;;;;;;;8.07;59.37;101094.41;5043748;28;20017;-84
2021/04/25 01:10:20;;;;;;;6.38;3.80;;;;;;;8.12;56.80;101103.75;5035405;28;20026;-85
2021/04/25 01:12:47;;;;;;;7.38;4.10;;;;;;;8.05;58.12;101098.97;5060501;28;20123;-84
2021/04/25 01:15:16;;;;;;;5.75;3.15;;;;;;;8.04;58.08;101093.84;5043049;28;20049;-84
2021/04/25 01:17:47;;;;;;;8.15;3.50;;;;;;;8.09;56.77;101094.31;5044658;28;20037;-84
2021/04/25 01:20:15;;;;;;;;;;;;;;;8.09;57.05;101097.75;5047413;28;20025;-84
2021/04/25 01:22:41;;;;;;;4.55;2.60;;;;;;;8.09;56.44;101097.75;5074670;28;19922;-85
2021/04/25 01:25:10;;;;;;;4.93;2.97;;;;;;;8.13;55.98;101094.88;5050919;28;20040;-85
2021/04/25 01:27:36;;;;;;;5.05;3.10;;;;;;;8.11;56.18;101096.81;5060122;28;20488;-84
2021/04/25 01:30:05;;;;;;;5.40;3.30;;;;;;;8.13;56.06;101097.50;5044426;28;20036;-85
2021/04/25 01:32:32;;;;;;;5.45;3.25;;;;;;;8.01;58.52;101096.72;5057305;28;20041;-85
2021/04/25 01:34:58;;;;;;;6.18;3.38;;;;;;;7.95;57.54;101095.38;5068528;28;20088;-85
2021/04/25 01:37:24;;;;;;;7.13;3.83;;;;;;;7.97;57.10;101090.84;5042088;28;20616;-84
2021/04/25 01:39:51;;;;;;;8.32;4.65;;;;;;;7.98;57.14;101094.31;5043263;28;20037;-85
2021/04/25 01:42:17;;;;;;;7.93;4.13;;;;;;;7.89;57.49;101093.25;5055257;28;20036;-85
2021/04/25 01:44:43;;;;;;;6.13;3.75;;;;;;;7.83;59.32;101096.34;5063127;28;20520;-85
2021/04/25 01:47:10;;;;;;;7.25;4.18;;;;;;;7.82;57.89;101099.94;5042388;28;20377;-85
2021/04/25 01:49:36;;;;;;;6.95;3.92;;;;;;;7.70;59.45;101104.38;5044865;28;20098;-84
2021/04/25 01:52:03;;;;;;;7.07;4.10;;;;;;;7.49;61.02;101098.97;5048933;28;20423;-85
2021/04/25 01:54:29;;;;;;;5.40;3.05;;;;;;;7.38;60.34;101102.41;5042367;28;20060;-85
2021/04/25 01:56:59;;;;;;;8.43;4.00;;;;;;;7.22;59.81;101099.25;5075238;28;20360;-84
2021/04/25 01:59:28;;;;;;;7.20;3.80;;;;;;;7.14;60.05;101099.00;5036221;28;20554;-85
2021/04/25 02:01:54;;;;;;;6.85;4.10;;;;;;;6.94;60.53;101100.50;5044646;28;20063;-85
2021/04/25 02:04:24;;;;;;;7.95;4.05;;;;;;;6.86;60.75;101095.81;5046358;28;20025;-84
2021/04/25 02:06:54;;;;;;;7.13;3.95;;;;;;;6.77;61.52;101093.88;5049558;28;20041;-83
2021/04/25 02:09:21;;;;;;;4.57;3.03;;;;;;;6.71;62.06;101096.94;5050853;28;20022;-84
2021/04/25 02:11:46;;;;;;;7.05;3.53;;;;;;;6.66;62.22;101096.44;5047215;28;20040;-83
2021/04/25 02:14:12;;;;;;;6.35;4.03;;;;;;;6.51;61.68;101085.28;5055341;28;20033;-83
2021/04/25 02:16:37;;;;;;;6.03;3.38;;;;;;;6.45;64.10;101091.78;5060364;28;20043;-84
2021/04/25 02:19:03;;;;;;;8.52;3.80;;;;;;;6.34;64.04;101087.34;5040829;28;20525;-84
2021/04/25 02:21:28;;;;;;;8.43;4.43;;;;;;;6.27;63.49;101088.72;5045150;28;20037;-85
2021/04/25 02:23:55;;;;;;;6.32;3.65;;;;;;;6.22;62.91;101085.59;5047422;28;20059;-85
2021/04/25 02:26:21;;;;;;;8.43;4.28;;;;;;;6.08;63.77;101083.94;5058844;28;20049;-85
2021/04/25 02:28:46;;;;;;;7.95;4.20;;;;;;;5.96;64.18;101084.81;5062644;28;20426;-85
2021/04/25 02:31:12;;;;;;;7.43;3.97;;;;;;;5.92;65.92;101085.94;5045233;28;20053;-84
2021/04/25 02:33:37;;;;;;;6.32;3.78;;;;;;;5.99;66.62;101097.72;5055380;28;20029;-85
2021/04/25 02:36:05;;;;;;;6.78;4.05;;;;;;;6.12;63.77;101100.31;5041671;28;20033;-85
2021/04/25 02:38:30;;;;;;;6.45;3.75;;;;;;;6.12;64.02;101097.69;5042175;28;20047;-85
2021/04/25 02:40:55;;;;;;;5.75;4.07;;;;;;;5.99;66.17;101094.25;5058966;28;20045;-83
2021/04/25 02:43:21;;;;;;;6.10;4.15;;;;;;;6.01;63.80;101095.00;5045404;28;20033;-84
2021/04/25 02:45:46;;;;;;;5.85;3.40;;;;;;;5.99;66.17;101087.22;5059949;28;20061;-85
2021/04/25 02:48:12;;;;;;;6.45;3.72;;;;;;;6.01;67.02;101093.19;5041226;28;20024;-85
2021/04/25 02:50:40;;;;;;;6.28;3.53;;;;;;;5.99;65.91;101092.47;5045526;28;20468;-85
2021/04/25 02:53:07;;;;;;;6.38;4.10;;;;;;;5.90;65.89;101095.69;5049601;28;20033;-85
2021/04/25 02:55:32;;;;;;;6.60;3.95;;;;;;;5.84;65.26;101096.13;5060852;28;20119;-85
2021/04/25 02:57:58;;;;;;;6.57;4.18;;;;;;;5.79;68.21;101095.59;5044518;28;20063;-84
2021/04/25 03:00:26;;;;;;;6.80;4.45;;;;;;;5.66;66.56;101083.34;5046776;28;20066;-85
2021/04/25 03:02:51;;;;;;;5.88;3.55;;;;;;;5.63;66.21;101083.56;5046209;28;20057;-85
2021/04/25 03:05:17;;;;;;;8.02;4.78;;;;;;;5.61;68.08;101089.88;5067253;28;20029;-84
2021/04/25 03:07:44;;;;;;;9.07;5.20;;;;;;;5.66;65.08;101087.75;5041410;28;20029;-85
2021/04/25 03:10:10;;;;;;;8.65;4.50;;;;;;;5.74;64.65;101088.06;5049346;28;20438;-84
2021/04/25 03:12:36;;;;;;;7.18;4.55;;;;;;;5.90;63.41;101082.56;5041063;28;20029;-84
2021/04/25 03:15:06;;;;;;;10.63;4.90;;;;;;;6.03;62.97;101070.31;5059757;28;20094;-83
2021/04/25 03:17:32;;;;;;;10.57;5.00;;;;;;;6.16;62.10;101081.59;5042200;28;20520;-84
2021/04/25 03:19:57;;;;;;;8.25;4.40;;;;;;;6.25;61.99;101077.47;5041049;28;20029;-84
2021/04/25 03:22:22;;;;;;;7.47;4.28;;;;;;;6.31;61.78;101071.78;5046083;28;20047;-84
2021/04/25 03:24:48;;;;;;;10.55;5.22;;;;;;;6.42;60.69;101068.38;5051131;28;20037;-85
2021/04/25 03:27:13;;;;;;;8.52;5.03;;;;;;;6.43;60.86;101077.09;5043320;28;20028;-85
2021/04/25 03:29:39;;;;;;;10.07;4.85;;;;;;;6.45;60.72;101070.78;5041823;28;20053;-85
2021/04/25 03:32:05;;;;;;;9.05;4.90;;;;;;;6.47;60.09;101068.06;5050324;28;20093;-83
2021/04/25 03:34:30;;;;;;;9.15;4.63;;;;;;;6.50;60.10;101068.66;5040478;28;20072;-85
2021/04/25 03:36:56;;;;;;;10.95;5.20;;;;;;;6.43;60.92;101085.81;5062290;28;20728;-86
2021/04/25 03:39:21;;;;;;;8.90;4.95;;;;;;;6.44;60.45;101084.88;5061351;28;20029;-84
2021/04/25 03:41:46;;;;;;;7.85;4.50;;;;;;;6.37;61.17;101083.66;5066579;28;20067;-84
2021/04/25 03:44:14;;;;;;;10.57;5.15;;;;;;;6.47;60.08;101084.66;5041198;28;20056;-85
2021/04/25 03:46:40;;;;;;;9.43;4.82;;;;;;;6.47;60.25;101089.91;5055429;28;20045;-84
2021/04/25 03:49:06;;;;;;;11.98;5.38;;;;;;;6.53;59.67;101092.09;5039628;28;20029;-85
2021/04/25 03:51:31;;;;;;;10.05;5.10;;;;;;;6.56;59.42;101083.16;5054680;28;20029;-84
2021/04/25 03:53:57;;;;;;;9.88;5.75;;;;;;;6.55;59.51;101086.72;5050521;28;20404;-83
2021/04/25 03:56:25;;;;;;;7.90;4.57;;;;;;;6.50;60.22;101087.03;5041904;28;20116;-84
2021/04/25 03:58:50;;;;;;;8.35;4.85;;;;;;;6.52;59.56;101081.69;5059342;28;20431;-86
2021/04/25 04:01:15;;;;;;;9.50;4.25;;;;;;;6.45;60.54;101088.34;5060295;28;20083;-84
2021/04/25 04:03:41;;;;;;;9.52;5.13;;;;;;;6.45;59.84;101085.72;5045083;28;20033;-84
2021/04/25 04:06:06;;;;;;;11.43;5.28;;;;;;;6.47;59.71;101078.56;5051295;28;20165;-84
2021/04/25 04:08:31;;;;;;;8.00;4.93;;;;;;;6.38;60.26;101078.25;5040435;28;20044;-85
2021/04/25 04:10:57;;;;;;;7.35;4.43;;;;;;;6.40;60.37;101080.78;5040534;28;20037;-84
2021/04/25 04:13:22;;;;;;;8.70;5.40;;;;;;;6.37;61.02;101091.53;5059224;28;20037;-84
2021/04/25 04:15:47;;;;;;;10.00;5.30;;;;;;;6.34;60.44;101087.34;5044764;28;20040;-86
2021/04/25 04:18:13;;;;;;;10.50;5.63;;;;;;;6.23;61.02;101087.25;5059115;28;20037;-84
2021/04/25 04:20:38;;;;;;;8.23;5.13;;;;;;;6.07;61.79;101091.91;5055581;28;20033;-83
2021/04/25 04:23:04;;;;;;;10.18;4.85;;;;;;;6.09;62.04;101097.91;5056533;28;20056;-85
2021/04/25 04:25:29;;;;;;;7.95;4.97;;;;;;;6.06;62.29;101095.50;5040921;28;20044;-84
2021/04/25 04:27:55;;;;;;;8.35;4.70;;;;;;;6.03;61.95;101104.44;5042083;28;20061;-84
2021/04/25 04:30:20;;;;;;;12.98;6.13;;;;;;;6.07;61.60;101098.00;5058450;28;20037;-84
2021/04/25 04:32:46;;;;;;;10.63;5.38;;;;;;;6.07;61.43;101098.00;5042678;28;20033;-85
2021/04/25 04:35:12;;;;;;;10.98;5.85;;;;;;;6.07;61.53;101111.13;5059443;28;20408;-85
2021/04/25 04:37:37;;;;;;;9.85;6.05;;;;;;;6.11;61.24;101109.97;5045254;28;20036;-84
2021/04/25 04:40:10;;;;;;;11.07;5.40;;;;;;;6.04;62.00;101111.34;5051266;28;20033;-84
2021/04/25 04:42:37;;;;;;;10.35;5.32;;;;;;;6.07;61.81;101118.19;5062503;28;20044;-85
2021/04/25 04:45:03;;;;;;;6.90;4.32;;;;;;;6.03;62.02;101120.19;5046614;28;20029;-84
2021/04/25 04:47:28;;;;;;;13.07;5.70;;;;;;;6.03;61.91;101124.56;5042824;28;20425;-84
2021/04/25 04:49:54;;;;;;;8.95;4.97;;;;;;;6.02;62.17;101126.38;5051794;28;20036;-84
2021/04/25 04:52:19;;;;;;;11.00;6.30;;;;;;;6.12;61.42;101124.75;5061567;28;20400;-85
2021/04/25 04:54:45;;;;;;;8.60;5.40;;;;;;;6.00;62.43;101127.44;5063128;28;20040;-85
2021/04/25 04:57:12;;;;;;;10.73;5.20;;;;;;;6.06;61.70;101133.09;5042363;28;20202;-85
2021/04/25 04:59:37;;;;;;;12.00;5.45;;;;;;;5.97;62.23;101140.78;5061952;28;20126;-85
2021/04/25 05:02:03;;;;;;;11.40;5.45;;;;;;;5.94;62.56;101136.59;5040540;28;20034;-85
2021/04/25 05:04:28;;;;;;;11.27;5.30;;;;;;;6.02;61.86;101143.91;5042599;28;20095;-84
2021/04/25 05:06:53;;;;;;;9.55;5.07;;;;;;;5.96;63.07;101134.69;5056041;28;20037;-85
2021/04/25 05:09:19;;;;;;;9.57;5.10;;;;;;;6.03;62.27;101141.19;5041203;28;20033;-84
2021/04/25 05:11:44;;;;;;;13.65;5.80;;;;;;;5.92;62.74;101143.69;5065910;28;20067;-84
2021/04/25 05:14:09;;;;;;;10.20;5.97;;;;;;;6.05;62.32;101143.69;5043804;28;20029;-85
2021/04/25 05:16:34;;;;;;;12.43;5.60;;;;;;;6.05;62.65;101149.78;5058350;28;20067;-84
2021/04/25 05:19:00;;;;;;;10.07;5.20;;;;;;;6.22;61.92;101159.13;5046981;28;20488;-84
2021/04/25 05:21:25;;;;;;;9.25;5.00;;;;;;;6.44;61.16;101157.59;5050968;28;20033;-84
2021/04/25 05:23:50;;;;;;;9.38;5.45;;;;;;;6.52;60.85;101160.50;5052806;28;20056;-84
2021/04/25 05:26:16;;;;;;;10.30;5.60;;;;;;;6.73;60.27;101164.22;5046882;28;20029;-84
2021/04/25 05:28:41;;;;;;;9.07;5.07;;;;;;;6.86;59.91;101163.31;5053703;28;20033;-85
2021/04/25 05:31:07;;;;;;;9.52;5.50;;;;;;;7.10;58.92;101165.94;5051141;28;20088;-85
2021/04/25 05:33:32;;;;;;;11.73;5.28;;;;;;;7.18;58.67;101168.84;5040535;28;20041;-85
2021/04/25 05:35:57;;;;;;;10.52;5.20;;;;;;;7.59;57.92;101175.41;5042907;28;20052;-84
2021/04/25 05:38:23;;;;;;;9.52;5.43;;;;;;;7.96;57.55;101170.81;5063960;28;20369;-85
2021/04/25 05:40:48;;;;;;;9.35;4.75;;;;;;;8.07;56.57;101176.06;5064256;28;20044;-85
2021/04/25 05:43:14;;;;;;;10.10;5.05;;;;;;;8.33;55.58;101162.66;5066244;28;20049;-84
2021/04/25 05:45:39;;;;;;;8.73;5.00;;;;;;;8.52;54.22;101153.31;5042229;28;20040;-83
2021/04/25 05:48:05;;;;;;;7.63;4.45;;;;;;;8.76;55.11;101172.41;5042092;28;20037;-85
2021/04/25 05:50:31;;;;;;;9.00;4.88;;;;;;;9.21;53.99;101169.63;5042133;28;20512;-84
2021/04/25 05:52:57;;;;;;;9.32;4.80;;;;;;;9.47;52.14;101172.72;5041601;28;20036;-84
2021/04/25 05:55:24;;;;;;;9.02;4.90;;;;;;;9.76;50.86;101177.34;5042848;28;20048;-85
2021/04/25 05:57:50;;;;;;;6.07;3.90;;;;;;;10.10;50.40;101177.09;5049682;28;20040;-84
2021/04/25 06:00:22;;;;;;;7.88;4.55;;;;;;;10.36;50.04;101182.78;5062076;28;20030;-84
2021/04/25 06:02:47;;;;;;;7.35;4.20;;;;;;;10.35;51.16;101189.06;5060574;28;20029;-85
2021/04/25 06:05:13;;;;;;;9.23;4.90;;;;;;;10.71;49.47;101182.31;5045650;28;20033;-85
2021/04/25 06:07:39;;;;;;;8.63;4.68;;;;;;;10.59;48.64;101181.59;5042719;28;20033;-86
2021/04/25 06:10:06;;;;;;;8.27;4.78;;;;;;;10.70;48.80;101180.66;5046876;28;20442;-85
2021/04/25 06:12:32;;;;;;;7.30;4.25;;;;;;;10.98;48.50;101186.94;5062162;28;20091;-84
2021/04/25 06:14:58;;;;;;;8.60;3.90;;;;;;;11.63;47.86;101183.69;5066600;28;20493;-85
2021/04/25 06:17:24;;;;;;;6.63;4.20;;;;;;;11.95;45.46;101187.84;5047664;28;20106;-84
2021/04/25 06:19:49;;;;;;;5.53;3.90;;;;;;;11.83;45.32;101184.50;5042915;28;20025;-85
2021/04/25 06:22:14;;;;;;;6.57;4.15;;;;;;;12.15;45.82;101189.44;5041842;28;20048;-85
2021/04/25 06:24:41;;;;;;;7.32;4.22;;;;;;;11.75;45.07;101190.53;5049919;28;20032;-84
2021/04/25 06:27:07;;;;;;;9.90;4.30;;;;;;;11.52;46.88;101190.00;5065071;28;20043;-84
2021/04/25 06:29:34;;;;;;;7.63;4.10;;;;;;;11.45;45.96;101194.19;5059282;28;20037;-86
2021/04/25 06:32:00;;;;;;;5.63;4.03;;;;;;;12.08;45.65;101196.31;5060411;28;20120;-85
2021/04/25 06:34:25;;;;;;;6.43;3.53;;;;;;;12.59;44.88;101199.44;5042838;28;20056;-84
2021/04/25 06:36:50;;;;;;;9.05;4.28;;;;;;;12.66;44.32;101206.66;5054890;28;20048;-85
2021/04/25 06:39:22;;;;;;;6.30;3.15;;;;;;;12.93;43.93;101197.81;5041517;28;20037;-86
2021/04/25 06:41:53;;;;;;;6.63;3.47;;;;;;;13.06;42.45;101204.56;5038935;28;20041;-87
2021/04/25 06:44:19;;;;;;;8.27;3.75;;;;;;;13.49;42.75;101195.84;5051684;28;20025;-85
2021/04/25 06:46:44;;;;;;;6.57;3.72;;;;;;;13.67;42.98;101197.63;5060003;28;20044;-83
2021/04/25 06:49:09;;;;;;;6.00;3.40;;;;;;;14.00;42.17;101194.19;5047646;28;20045;-85
2021/04/25 06:51:35;;;;;;;8.40;3.80;;;;;;;13.94;41.44;101197.50;5042769;28;20412;-85
2021/04/25 06:54:00;;;;;;;6.40;3.47;;;;;;;14.31;41.41;101196.34;5048312;28;20076;-85
2021/04/25 06:56:25;;;;;;;8.15;4.25;;;;;;;14.09;41.57;101200.41;5049494;28;20037;-85
2021/04/25 06:58:51;;;;;;;6.60;3.80;;;;;;;14.14;41.50;101206.06;5044508;28;20091;-85
2021/04/25 07:01:17;;;;;;;8.00;4.60;;;;;;;13.82;41.83;101201.38;5052360;28;20029;-84
2021/04/25 07:03:42;;;;;;;7.28;3.85;;;;;;;14.21;41.32;101207.09;5060958;28;20087;-85
2021/04/25 07:06:07;;;;;;;7.15;3.83;;;;;;;14.61;40.52;101202.97;5042320;28;20040;-85
2021/04/25 07:08:33;;;;;;;7.38;4.00;;;;;;;14.96;39.42;101208.22;5040907;28;20047;-85
2021/04/25 07:10:59;;;;;;;5.00;2.88;;;;;;;15.26;40.49;101204.91;5062705;28;20037;-85
2021/04/25 07:13:24;;;;;;;5.13;3.25;;;;;;;15.26;38.46;101206.75;5049353;28;20040;-85
2021/04/25 07:15:50;;;;;;;5.38;3.22;;;;;;;15.25;39.62;101205.06;5048364;28;20179;-85
2021/04/25 07:18:15;;;;;;;6.97;3.70;;;;;;;15.31;39.55;101196.44;5046673;28;20087;-85
2021/04/25 07:20:41;;;;;;;6.60;3.55;;;;;;;15.88;38.21;101201.72;5044430;28;20043;-86
2021/04/25 07:23:06;;;;;;;7.85;3.80;;;;;;;16.64;37.71;101204.78;5060881;28;20064;-86
2021/04/25 07:25:32;;;;;;;7.95;3.35;;;;;;;17.15;37.48;101204.34;5046144;28;20539;-85
2021/04/25 07:28:00;;;;;;;6.68;3.85;;;;;;;17.01;36.49;101202.44;5041958;28;20050;-85
2021/04/25 07:30:25;;;;;;;8.88;4.82;;;;;;;17.40;34.96;101205.81;5040756;28;20387;-85
2021/04/25 07:32:51;;;;;;;5.35;2.92;;;;;;;17.18;36.03;101196.81;5047786;28;20120;-85
2021/04/25 07:35:16;;;;;;;5.80;3.45;;;;;;;16.89;35.58;101199.34;5055710;28;20064;-85
2021/04/25 07:37:43;;;;;;;7.07;3.78;;;;;;;16.70;35.48;101205.94;5046227;28;20045;-85
2021/04/25 07:40:09;;;;;;;6.75;3.45;;;;;;;17.70;32.76;101197.03;5041110;28;20032;-86
2021/04/25 07:42:40;;;;;;;6.60;3.78;;;;;;;18.49;32.52;101199.16;5064515;28;20041;-86
2021/04/25 07:45:13;;;;;;;5.32;3.38;;;;;;;18.68;31.62;101201.25;5054140;28;20040;-85
2021/04/25 07:47:43;;;;;;;5.47;3.47;;;;;;;19.21;30.27;101191.13;5075406;28;20037;-85
2021/04/25 07:50:11;;;;;;;7.65;4.05;;;;;;;19.37;28.83;101187.31;5046553;28;20452;-85
2021/04/25 07:52:37;;;;;;;7.32;4.50;;;;;;;19.99;28.88;101193.78;5053322;28;20033;-85
2021/04/25 07:55:05;;;;;;;6.72;3.65;;;;;;;19.62;29.48;101198.47;5047466;28;20043;-85
2021/04/25 07:57:31;;;;;;;6.47;3.33;;;;;;;19.42;29.40;101184.88;5045230;28;20037;-84
2021/04/25 07:59:56;;;;;;;6.25;3.00;;;;;;;19.59;28.72;101185.41;5045884;28;20032;-84
2021/04/25 08:02:22;;;;;;;4.43;2.97;;;;;;;19.94;28.74;101188.19;5060092;28;20332;-85
2021/04/25 08:04:51;;;;;;;6.03;3.58;;;;;;;19.55;29.23;101188.72;5045623;28;20060;-85
2021/04/25 08:07:17;;;;;;;5.13;3.03;;;;;;;20.16;27.76;101183.53;5044055;28;20025;-85
2021/04/25 08:09:43;;;;;;;5.25;3.50;;;;;;;20.51;27.63;101183.50;5039606;28;20029;-86
2021/04/25 08:12:10;;;;;;;5.78;3.38;;;;;;;20.31;27.55;101180.75;5049730;28;20033;-86
2021/04/25 08:14:35;;;;;;;6.15;3.60;;;;;;;19.86;27.98;101174.94;5043084;28;20056;-85
2021/04/25 08:17:01;;;;;;;5.53;3.35;;;;;;;20.31;27.24;101172.69;5054486;28;20055;-86
2021/04/25 08:19:26;;;;;;;6.53;3.50;;;;;;;20.58;26.61;101182.50;5062419;28;20113;-85
2021/04/25 08:21:52;;;;;;;4.00;2.80;;;;;;;20.64;27.85;101180.03;5062136;28;20128;-85
2021/04/25 08:24:17;;;;;;;6.28;2.92;;;;;;;21.21;26.41;101179.53;5032939;28;20029;-85
2021/04/25 08:26:42;;;;;;;6.25;4.28;;;;;;;21.99;24.69;101196.88;5044480;28;20428;-84
2021/04/25 08:29:08;;;;;;;6.03;3.92;;;;;;;21.23;26.04;101190.09;5050934;28;20553;-85
2021/04/25 08:31:33;;;;;;;6.20;3.55;;;;;;;21.24;25.20;101190.91;5042906;28;20033;-85
2021/04/25 08:33:59;;;;;;;5.45;3.75;;;;;;;20.49;26.27;101188.22;5043219;28;20041;-84
2021/04/25 08:36:24;;;;;;;6.25;3.40;;;;;;;20.79;25.83;101183.41;5061585;28;20120;-86
2021/04/25 08:38:49;;;;;;;6.80;3.53;;;;;;;20.83;25.46;101186.50;5043756;28;20091;-86
2021/04/25 08:41:17;;;;;;;4.20;2.70;;;;;;;21.45;26.71;101193.41;5043724;28;20035;-86
2021/04/25 08:43:44;;;;;;;5.50;3.08;;;;;;;22.25;24.64;101188.75;5061675;28;20033;-85
2021/04/25 08:46:12;;;;;;;6.22;3.00;;;;;;;22.13;24.26;101187.72;5051431;28;20038;-86
2021/04/25 08:48:39;;;;;;;6.53;3.72;;;;;;;22.48;22.05;101177.47;5040131;28;20133;-86
2021/04/25 08:51:06;;;;;;;4.13;2.80;;;;;;;22.34;24.55;101197.44;5041593;28;20034;-85
2021/04/25 08:53:32;;;;;;;5.15;2.70;;;;;;;23.00;23.89;101188.19;5041345;28;20034;-86
2021/04/25 08:55:57;;;;;;;6.30;3.42;;;;;;;23.06;23.61;101184.63;5041642;28;20056;-87
2021/04/25 08:58:23;;;;;;;6.40;2.92;;;;;;;23.30;23.34;101192.94;5037364;28;20033;-87
2021/04/25 09:00:49;;;;;;;4.28;3.13;;;;;;;23.34;22.88;101191.47;5041560;28;20101;-86
2021/04/25 09:03:16;;;;;;;6.03;3.60;;;;;;;23.83;21.75;101191.66;5058819;28;20064;-86
2021/04/25 09:05:49;;;;;;;4.22;2.90;;;;;;;23.46;22.55;101195.09;5058724;28;20094;-86
2021/04/25 09:08:14;;;;;;;5.72;2.80;;;;;;;23.01;21.48;101180.94;5052198;28;20037;-86
2021/04/25 09:10:43;;;;;;;3.90;2.20;;;;;;;23.14;22.23;101190.78;5045686;28;20043;-86
2021/04/25 09:13:20;;;;;;;4.78;2.78;;;;;;;22.77;21.94;101190.59;5048301;28;20041;-85
2021/04/25 09:15:47;;;;;;;4.25;2.70;;;;;;;22.79;22.44;101189.34;5053573;28;20095;-86
2021/04/25 09:18:13;;;;;;;5.05;3.03;;;;;;;21.68;23.21;101187.63;5052637;28;20046;-85
2021/04/25 09:20:47;;;;;;;5.47;2.95;;;;;;;21.22;24.67;101180.38;5037490;28;20052;-86
2021/04/25 09:23:22;;;;;;;5.70;3.97;;;;;;;21.59;23.39;101178.91;5042802;28;20047;-86
2021/04/25 09:26:20;;;;;;;5.95;2.83;;;;;;;20.65;25.85;101179.84;5044389;28;20045;-86
2021/04/25 09:29:01;;;;;;;6.15;2.80;;;;;;;19.88;25.62;101167.50;5004456;28;20044;-86
2021/04/25 09:31:26;;;;;;;5.78;3.35;;;;;;;20.35;25.76;101171.22;5040209;28;20111;-86
2021/04/25 09:33:57;;;;;;;7.05;3.63;;;;;;;20.35;26.54;101173.91;5056725;28;20037;-85
2021/04/25 09:36:27;;;;;;;;;;;;;;;19.49;27.48;101176.91;5050813;28;20048;-86
2021/04/25 09:39:07;;;;;;;5.82;3.00;;;;;;;19.40;27.79;101176.22;5043777;28;20309;-85
2021/04/25 09:41:33;;;;;;;4.88;2.80;;;;;;;19.30;28.26;101165.81;5061450;28;20048;-86
2021/04/25 09:44:00;;;;;;;5.57;2.90;;;;;;;19.30;27.20;101164.97;5060209;28;20068;-86
2021/04/25 09:46:57;;;;;;;3.97;2.55;;;;;;;19.38;26.79;101166.69;5038523;28;20492;-86
2021/04/25 09:49:44;;;;;;;4.18;2.60;;;;;;;19.03;27.25;101159.38;5021943;28;20112;-86
2021/04/25 09:52:12;;;;;;;7.47;3.65;;;;;;;18.73;27.85;101155.97;5059426;28;20124;-86
2021/04/25 09:54:43;;;;;;;6.47;3.45;;;;;;;17.92;28.25;101152.50;5050073;28;20029;-87
2021/04/25 09:57:32;;;;;;;6.70;3.60;;;;;;;18.18;27.83;101150.16;5041461;28;20077;-86
2021/04/25 09:59:58;;;;;;;6.93;3.17;;;;;;;17.67;29.88;101149.25;5044665;28;20060;-85
2021/04/25 10:02:23;;;;;;;6.47;3.65;;;;;;;17.94;29.04;101164.69;5053060;28;20040;-85
2021/04/25 10:04:48;;;;;;;4.40;2.70;;;;;;;17.76;28.70;101148.97;5062421;28;20044;-84
2021/04/25 10:07:14;;;;;;;5.32;3.38;;;;;;;17.71;29.10;101156.72;5055946;28;20503;-85
2021/04/25 10:09:39;;;;;;;5.53;3.50;;;;;;;17.67;28.96;101155.41;5057474;28;20037;-85
2021/04/25 10:12:05;;;;;;;5.15;3.05;;;;;;;17.32;29.31;101141.72;5052693;28;20060;-84
2021/04/25 10:14:33;;;;;;;6.30;2.80;;;;;;;17.19;30.06;101146.84;5046143;28;20044;-85
2021/04/25 10:16:59;;;;;;;5.47;2.90;;;;;;;17.15;30.17;101153.56;5042927;28;20040;-86
2021/04/25 10:19:25;;;;;;;6.72;3.35;;;;;;;17.42;30.20;101149.47;5046274;28;20064;-86
2021/04/25 10:21:52;;;;;;;6.88;3.20;;;;;;;17.27;30.16;101153.97;5054090;28;20072;-87
2021/04/25 10:24:21;;;;;;;7.20;3.45;;;;;;;16.79;30.09;101145.31;5044106;28;20033;-85
2021/04/25 10:26:59;;;;;;;6.85;4.10;;;;;;;16.78;30.41;101152.47;5045993;28;20404;-84
2021/04/25 10:29:52;;;;;;;5.38;3.15;;;;;;;16.89;31.96;101151.25;5034312;28;20030;-86
2021/04/25 10:32:19;;;;;;;4.60;2.80;;;;;;;16.97;30.71;101156.53;5036138;28;20033;-85
2021/04/25 10:34:45;;;;;;;7.50;3.63;;;;;;;17.25;29.74;101156.81;5043176;28;20037;-85
2021/04/25 10:37:11;;;;;;;6.95;3.70;;;;;;;17.18;29.78;101153.19;5060123;28;20055;-85
2021/04/25 10:39:37;;;;;;;9.20;3.90;;;;;;;16.84;30.37;101154.44;5041062;28;20033;-86
2021/04/25 10:42:19;;;;;;;6.10;3.10;;;;;;;16.54;30.23;101140.94;5051164;28;20127;-85
2021/04/25 10:47:29;;;;;;;5.43;2.60;;;;;;;16.54;30.05;101132.94;5057451;28;20025;-85
2021/04/25 10:49:59;;;;;;;6.47;2.90;;;;;;;16.56;30.46;101133.59;5061564;28;20041;-85
2021/04/25 10:52:31;;;;;;;7.50;2.80;;;;;;;16.49;31.26;101139.78;5044130;28;20412;-86
2021/04/25 10:55:16;;;;;;;5.32;2.78;;;;;;;16.33;31.44;101130.03;5045768;28;20037;-85
2021/04/25 10:57:51;;;;;;;7.68;3.85;;;;;;;16.51;30.56;101138.59;5045303;28;20052;-86
2021/04/25 11:00:32;;;;;;;4.78;2.47;;;;;;;16.42;33.12;101125.47;5044772;28;20033;-86
2021/04/25 11:03:11;;;;;;;7.55;3.30;;;;;;;16.45;32.61;101127.81;5063324;28;20498;-85
2021/04/25 11:05:40;;;;;;;5.45;3.03;;;;;;;16.65;31.70;101123.66;5039654;28;20105;-85
2021/04/25 11:08:32;;;;;;;4.70;2.67;;;;;;;16.40;31.58;101131.00;5059389;28;20072;-86
2021/04/25 11:11:00;;;;;;;5.07;2.70;;;;;;;16.32;32.69;101129.19;5052725;28;20029;-86
2021/04/25 11:13:34;;;;;;;4.75;2.60;;;;;;;16.51;31.89;101119.91;5043468;28;20040;-86
2021/04/25 11:16:06;;;;;;;4.75;2.60;;;;;;;16.50;32.55;101130.78;5053330;28;20037;-86
2021/04/25 11:18:53;;;;;;;;;;;;;;;16.57;30.29;101123.72;5043482;28;20029;-84
2021/04/25 11:21:28;;;;;;;4.80;2.67;;;;;;;16.41;29.89;101121.16;5044523;28;19913;-87
2021/04/25 11:23:58;;;;;;;4.38;2.22;;;;;;;16.38;29.89;101103.66;5061594;28;20242;-85
2021/04/25 11:26:39;;;;;;;5.03;2.63;;;;;;;16.44;31.65;101108.28;5062534;28;20036;-86
2021/04/25 11:29:11;;;;;;;4.78;2.22;;;;;;;16.34;27.87;101111.16;5042520;28;20045;-86
2021/04/25 11:32:01;;;;;;;5.07;2.50;;;;;;;16.30;27.88;101107.22;5044679;28;20089;-85
2021/04/25 11:34:27;;;;;;;7.00;2.50;;;;;;;16.03;28.99;101105.81;5043553;28;20036;-86